This is the latest recevied weather packets stored in our database for station/object N3WAX-1. If no packets are shown the sender has not sent any weather packets the latest 10 day(s).
| Time | Temp. | Humidity | Pressure | Rain* | Wind** | Luminosity | Snow |
|---|---|---|---|---|---|---|---|
| 1777363066 | 4.44° C | 94% | 1023 hPa | 0 mm | - | 0 W/m² | - |
| 1777360915 | 3.89° C | 93% | 1023.1 hPa | 0 mm | - | 0 W/m² | - |
| 1777359379 | 4.44° C | 93% | 1023 hPa | 0 mm | - | 0 W/m² | - |
| 1777359071 | 4.44° C | 92% | 1023 hPa | 0 mm | - | 0 W/m² | - |
| 1777357265 | 5.56° C | 91% | 1023.1 hPa | 0 mm | - | 0 W/m² | - |
| 1777354848 | 5.56° C | 90% | 1023.5 hPa | 0 mm | - | 0 W/m² | - |
| 1777354548 | 6.11° C | 90% | 1023.5 hPa | 0 mm | - | 0 W/m² | - |
| 1777353943 | 5.56° C | 90% | 1023.6 hPa | 0 mm | - | 0 W/m² | - |
| 1777353332 | 6.11° C | 89% | 1024 hPa | 0 mm | - | 0 W/m² | - |
| 1777353034 | 6.11° C | 89% | 1024.2 hPa | 0 mm | - | 0 W/m² | - |
| 1777352731 | 6.11° C | 89% | 1024.2 hPa | 0 mm | - | 0 W/m² | - |
| 1777351223 | 7.22° C | 87% | 1024.4 hPa | 0 mm | - | 0 W/m² | - |
| 1777342770 | 10.56° C | 73% | 1024.8 hPa | 0 mm | - | 0 W/m² | - |
| 1777342154 | 10.56° C | 73% | 1024.9 hPa | 0 mm | - | 0 W/m² | - |
| 1777341542 | 10.56° C | 73% | 1025 hPa | 0 mm | - | 0 W/m² | - |
| 1777340309 | 10.56° C | 71% | 1024.9 hPa | 0 mm | - | 0 W/m² | - |
| 1777338466 | 11.67° C | 68% | 1024.9 hPa | 0 mm | - | 0 W/m² | - |
| 1777338160 | 11.67° C | 68% | 1024.8 hPa | 0 mm | - | 0 W/m² | - |
| 1777333548 | 15° C | 64% | 1023.6 hPa | 0 mm | - | 9 W/m² | - |
| 1777332649 | 16.67° C | 61% | 1023.3 hPa | 0 mm | - | 21 W/m² | - |
| 1777330251 | 18.33° C | 53% | 1022.8 hPa | 0 mm | - | 121 W/m² | - |
| 1777329952 | 18.89° C | 50% | 1022.8 hPa | 0 mm | - | 130 W/m² | - |
| 1777329340 | 18.89° C | 48% | 1022.8 hPa | 0 mm | - | 151 W/m² | - |
| 1777328728 | 19.44° C | 49% | 1022.7 hPa | 0 mm | - | 193 W/m² | - |
| 1777323858 | 20° C | 51% | 1023 hPa | 0 mm | - | 188 W/m² | - |
* Rain latest hour (hover to see other rain measurements)
** Current wind speed in m/s (hover to see current wind gust speed)